createdAt,value
2018-03-24T00:02:22.221Z,5.82
2018-03-24T00:04:49.701Z,5.86
2018-03-24T00:07:17.173Z,5.97
2018-03-24T00:09:44.767Z,5.93
2018-03-24T00:12:12.227Z,5.88
2018-03-24T00:14:39.665Z,5.94
2018-03-24T00:17:07.129Z,6.04
2018-03-24T00:19:34.586Z,6.12
2018-03-24T00:22:02.338Z,6.07
2018-03-24T00:24:29.781Z,6.02
2018-03-24T00:26:57.229Z,6.07
2018-03-24T00:29:24.697Z,6.02
2018-03-24T00:31:52.164Z,5.98
2018-03-24T00:34:19.889Z,5.94
2018-03-24T00:36:47.329Z,5.84
2018-03-24T00:39:14.773Z,5.90
2018-03-24T00:41:42.253Z,5.88
2018-03-24T00:44:09.701Z,5.82
2018-03-24T00:46:37.313Z,5.65
2018-03-24T00:49:04.757Z,5.58
2018-03-24T00:51:32.214Z,5.56
2018-03-24T00:53:59.685Z,5.43
2018-03-24T00:56:27.136Z,5.41
2018-03-24T00:58:54.909Z,5.30
2018-03-24T01:01:22.362Z,5.28
2018-03-24T01:03:49.805Z,5.14
2018-03-24T01:06:17.282Z,5.33
2018-03-24T01:08:44.733Z,5.14
2018-03-24T01:11:12.414Z,5.02
2018-03-24T01:13:39.857Z,5.37
2018-03-24T01:16:07.301Z,5.50
2018-03-24T01:18:34.765Z,5.25
2018-03-24T01:21:02.221Z,5.29
2018-03-24T01:23:29.873Z,5.15
2018-03-24T01:25:57.329Z,5.12
2018-03-24T01:28:24.886Z,5.13
2018-03-24T01:30:52.345Z,5.20
2018-03-24T01:33:19.797Z,5.10
2018-03-24T01:35:47.574Z,5.03
2018-03-24T01:38:15.041Z,5.06
2018-03-24T01:40:42.510Z,5.11
2018-03-24T01:43:09.973Z,5.01
2018-03-24T01:45:37.417Z,5.10
2018-03-24T01:48:04.901Z,5.12
2018-03-24T01:50:32.341Z,5.17
2018-03-24T01:52:59.789Z,5.22
2018-03-24T01:55:27.269Z,5.11
2018-03-24T01:57:54.709Z,5.37
2018-03-24T02:00:22.325Z,5.36
2018-03-24T02:02:49.769Z,5.16
2018-03-24T02:05:17.223Z,5.16
2018-03-24T02:07:44.704Z,5.10
2018-03-24T02:10:12.173Z,5.15
2018-03-24T02:12:39.673Z,5.16
2018-03-24T02:15:07.126Z,5.23
2018-03-24T02:17:34.589Z,5.11
2018-03-24T02:20:02.063Z,5.00
2018-03-24T02:22:29.535Z,5.17
2018-03-24T02:24:57.021Z,5.11
2018-03-24T02:27:24.473Z,4.97
2018-03-24T02:29:51.926Z,4.79
2018-03-24T02:32:19.578Z,4.82
2018-03-24T02:34:47.042Z,4.88
2018-03-24T02:37:14.674Z,5.05
2018-03-24T02:39:42.169Z,4.86
2018-03-24T02:42:09.784Z,4.92
2018-03-24T02:44:37.266Z,5.14
2018-03-24T02:47:04.708Z,4.94
2018-03-24T02:49:32.181Z,5.15
2018-03-24T02:51:59.626Z,5.17
2018-03-24T02:54:27.069Z,5.12
2018-03-24T02:56:54.545Z,5.11
2018-03-24T02:59:21.985Z,5.20
2018-03-24T03:01:49.781Z,5.29
2018-03-24T03:04:17.257Z,5.41
2018-03-24T03:06:44.706Z,5.22
2018-03-24T03:09:12.190Z,5.27
2018-03-24T03:11:39.637Z,5.24
2018-03-24T03:14:07.330Z,5.23
2018-03-24T03:16:34.770Z,5.13
2018-03-24T03:19:02.225Z,5.07
2018-03-24T03:24:31.717Z,4.67
2018-03-24T03:26:59.390Z,4.83
2018-03-24T03:29:26.829Z,4.66
2018-03-24T03:31:55.249Z,4.82
2018-03-24T03:34:22.721Z,4.59
2018-03-24T03:36:50.190Z,4.22
2018-03-24T03:39:17.766Z,4.31
2018-03-24T03:41:45.210Z,3.87
2018-03-24T03:44:12.657Z,4.01
2018-03-24T03:46:40.129Z,3.65
2018-03-24T03:49:07.596Z,3.73
2018-03-24T03:51:35.217Z,3.82
2018-03-24T03:54:02.669Z,3.70
2018-03-24T03:56:30.134Z,3.90
2018-03-24T03:58:57.593Z,3.73
2018-03-24T04:01:25.048Z,3.48
2018-03-24T04:03:52.581Z,3.37
2018-03-24T04:06:20.041Z,3.09
2018-03-24T04:08:47.494Z,3.11
2018-03-24T04:11:14.964Z,2.78
2018-03-24T04:13:42.409Z,2.57
2018-03-24T04:16:10.114Z,2.58
2018-03-24T04:18:37.594Z,2.69
2018-03-24T04:21:05.049Z,2.86
2018-03-24T04:23:32.557Z,3.04
2018-03-24T04:26:00.006Z,3.29
2018-03-24T04:28:27.478Z,3.53
2018-03-24T04:30:54.935Z,3.66
2018-03-24T04:33:22.397Z,3.89
2018-03-24T04:35:49.868Z,3.81
2018-03-24T04:38:17.310Z,3.80
2018-03-24T04:40:44.805Z,3.73
2018-03-24T04:43:12.265Z,3.82
2018-03-24T04:45:39.715Z,3.85
2018-03-24T04:48:07.177Z,4.01
2018-03-24T04:50:34.650Z,3.76
2018-03-24T04:53:02.362Z,3.75
2018-03-24T04:55:29.801Z,3.78
2018-03-24T04:57:57.244Z,3.91
2018-03-24T05:00:24.705Z,4.05
2018-03-24T05:02:52.191Z,4.01
2018-03-24T05:05:19.722Z,3.87
2018-03-24T05:07:47.165Z,3.93
2018-03-24T05:10:14.609Z,3.66
2018-03-24T05:12:42.117Z,3.69
2018-03-24T05:15:09.557Z,3.75
2018-03-24T05:17:37.049Z,3.83
2018-03-24T05:20:04.513Z,3.63
2018-03-24T05:22:31.954Z,3.80
2018-03-24T05:24:59.427Z,3.71
2018-03-24T05:27:26.869Z,3.64
2018-03-24T05:29:54.581Z,3.71
2018-03-24T05:32:22.035Z,3.74
2018-03-24T05:34:49.508Z,3.84
2018-03-24T05:37:16.989Z,3.86
2018-03-24T05:39:44.442Z,3.62
2018-03-24T05:42:12.071Z,3.75
2018-03-24T05:44:39.530Z,3.62
2018-03-24T05:47:06.977Z,3.69
2018-03-24T05:49:34.442Z,3.90
2018-03-24T05:52:01.896Z,3.71
2018-03-24T05:54:29.615Z,3.87
2018-03-24T05:56:57.064Z,3.88
2018-03-24T05:59:24.505Z,4.03
2018-03-24T06:01:51.982Z,3.67
2018-03-24T06:04:19.426Z,3.83
2018-03-24T06:06:46.909Z,4.03
2018-03-24T06:09:14.357Z,4.11
2018-03-24T06:11:41.805Z,4.11
2018-03-24T06:14:09.273Z,4.25
2018-03-24T06:16:36.721Z,4.34
2018-03-24T06:19:04.194Z,4.51
2018-03-24T06:21:31.646Z,4.37
2018-03-24T06:23:59.086Z,4.42
2018-03-24T06:26:26.549Z,4.28
2018-03-24T06:28:53.993Z,4.40
2018-03-24T06:31:33.313Z,4.16
2018-03-24T06:34:00.765Z,4.07
2018-03-24T06:36:29.123Z,4.16
2018-03-24T06:38:56.593Z,4.42
2018-03-24T06:41:24.047Z,4.38
2018-03-24T06:43:51.566Z,4.50
2018-03-24T06:46:19.015Z,4.60
2018-03-24T06:48:46.461Z,4.60
2018-03-24T06:51:13.923Z,4.73
2018-03-24T06:53:41.369Z,4.62
2018-03-24T06:56:08.996Z,4.79
2018-03-24T06:58:36.457Z,4.42
2018-03-24T07:01:03.901Z,4.50
2018-03-24T07:03:31.369Z,4.48
2018-03-24T07:05:58.817Z,4.48
2018-03-24T07:08:26.672Z,4.55
2018-03-24T07:10:54.114Z,4.71
2018-03-24T07:13:21.566Z,4.92
2018-03-24T07:15:49.087Z,4.68
2018-03-24T07:18:16.499Z,4.65
2018-03-24T07:20:44.345Z,4.97
2018-03-24T07:23:11.805Z,5.05
2018-03-24T07:25:39.248Z,4.95
2018-03-24T07:28:06.713Z,5.02
2018-03-24T07:30:34.157Z,5.01
2018-03-24T07:33:01.644Z,5.18
2018-03-24T07:35:29.089Z,5.32
2018-03-24T07:37:56.537Z,5.48
2018-03-24T07:40:24.003Z,5.73
2018-03-24T07:42:51.445Z,5.68
2018-03-24T07:45:18.940Z,5.53
2018-03-24T07:47:46.396Z,5.55
2018-03-24T07:50:13.845Z,5.60
2018-03-24T07:52:41.362Z,5.80
2018-03-24T07:55:08.814Z,5.73
2018-03-24T07:57:36.489Z,5.99
2018-03-24T08:00:03.942Z,6.30
2018-03-24T08:02:31.393Z,6.36
2018-03-24T08:04:58.886Z,6.24
2018-03-24T08:07:26.333Z,6.26
2018-03-24T08:09:54.062Z,6.41
2018-03-24T08:12:21.501Z,6.38
2018-03-24T08:14:48.951Z,6.62
2018-03-24T08:17:16.421Z,6.94
2018-03-24T08:19:43.893Z,6.88
2018-03-24T08:22:11.489Z,6.71
2018-03-24T08:24:38.932Z,7.02
2018-03-24T08:27:06.387Z,7.35
2018-03-24T08:29:33.901Z,7.57
2018-03-24T08:32:01.341Z,7.47
2018-03-24T08:34:28.853Z,7.23
2018-03-24T08:36:56.305Z,7.24
2018-03-24T08:39:23.777Z,7.49
2018-03-24T08:41:51.237Z,7.60
2018-03-24T08:44:18.709Z,7.41
2018-03-24T08:46:46.181Z,7.62
2018-03-24T08:49:13.637Z,7.71
2018-03-24T08:51:41.106Z,7.92
2018-03-24T08:54:08.581Z,7.76
2018-03-24T08:56:36.026Z,7.70
2018-03-24T08:59:03.693Z,7.70
2018-03-24T09:01:31.157Z,8.16
2018-03-24T09:03:58.601Z,8.30
2018-03-24T09:06:26.061Z,7.92
2018-03-24T09:08:53.509Z,8.05
2018-03-24T09:11:20.982Z,7.92
2018-03-24T09:13:48.421Z,8.29
2018-03-24T09:16:15.893Z,8.32
2018-03-24T09:18:43.365Z,8.03
2018-03-24T09:21:10.818Z,8.31
2018-03-24T09:23:38.597Z,8.69
2018-03-24T09:26:06.087Z,8.32
2018-03-24T09:28:33.542Z,8.47
2018-03-24T09:31:01.041Z,8.81
2018-03-24T09:33:28.486Z,8.57
2018-03-24T09:35:56.092Z,8.79
2018-03-24T09:38:23.554Z,8.77
2018-03-24T09:40:51.003Z,8.60
2018-03-24T09:43:18.470Z,8.80
2018-03-24T09:45:45.921Z,8.85
2018-03-24T09:48:13.441Z,9.02
2018-03-24T09:50:40.925Z,9.23
2018-03-24T09:53:08.373Z,9.10
2018-03-24T09:55:35.850Z,8.99
2018-03-24T09:58:03.300Z,9.01
2018-03-24T10:00:30.826Z,9.14
2018-03-24T10:02:59.141Z,9.26
2018-03-24T10:05:26.593Z,9.50
2018-03-24T10:07:54.057Z,9.46
2018-03-24T10:10:21.512Z,9.63
2018-03-24T10:12:49.149Z,9.61
2018-03-24T10:15:16.873Z,9.63
2018-03-24T10:17:44.324Z,9.56
2018-03-24T10:20:11.794Z,9.56
2018-03-24T10:22:51.062Z,9.42
2018-03-24T10:25:18.529Z,9.86
2018-03-24T10:27:45.977Z,9.99
2018-03-24T10:30:13.561Z,10.09
2018-03-24T10:32:41.032Z,10.18
2018-03-24T10:35:08.483Z,10.09
2018-03-24T10:37:41.542Z,9.98
2018-03-24T10:40:08.993Z,10.00
2018-03-24T10:42:36.574Z,9.77
2018-03-24T10:45:04.045Z,9.69
2018-03-24T10:47:31.501Z,10.32
2018-03-24T10:49:58.989Z,10.25
2018-03-24T10:52:26.469Z,10.28
2018-03-24T10:54:54.060Z,10.41
2018-03-24T10:57:21.518Z,10.81
2018-03-24T10:59:48.977Z,10.22
2018-03-24T11:02:16.446Z,10.53
2018-03-24T11:04:43.909Z,10.23
2018-03-24T11:07:11.398Z,9.90
2018-03-24T11:09:38.845Z,9.91
2018-03-24T11:12:06.294Z,10.28
2018-03-24T11:14:33.769Z,10.53
2018-03-24T11:17:01.239Z,10.69
2018-03-24T11:19:28.725Z,10.84
2018-03-24T11:21:56.185Z,10.22
2018-03-24T11:24:23.665Z,10.73
2018-03-24T11:26:51.174Z,11.12
2018-03-24T11:29:18.617Z,10.86
2018-03-24T11:31:46.117Z,11.53
2018-03-24T11:34:13.573Z,11.42
2018-03-24T11:36:41.041Z,10.72
2018-03-24T11:39:08.519Z,10.96
2018-03-24T11:41:35.967Z,11.12
2018-03-24T11:44:03.449Z,10.94
2018-03-24T11:46:30.885Z,10.91
2018-03-24T11:48:58.341Z,10.62
2018-03-24T11:51:25.805Z,10.54
2018-03-24T11:53:53.258Z,10.27
2018-03-24T11:56:20.877Z,10.28
2018-03-24T11:58:48.321Z,10.50
2018-03-24T12:01:15.762Z,10.48
2018-03-24T12:03:43.231Z,10.70
2018-03-24T12:06:10.705Z,11.20
2018-03-24T12:08:38.315Z,11.10
2018-03-24T12:11:05.766Z,10.99
2018-03-24T12:13:33.213Z,10.73
2018-03-24T12:16:00.688Z,10.83
2018-03-24T12:18:28.137Z,11.18
2018-03-24T12:20:55.635Z,11.11
2018-03-24T12:23:23.081Z,10.80
2018-03-24T12:25:50.521Z,10.72
2018-03-24T12:28:17.984Z,10.64
2018-03-24T12:30:45.436Z,10.94
2018-03-24T12:33:12.917Z,10.83
2018-03-24T12:35:40.373Z,11.02
2018-03-24T12:38:07.846Z,10.52
2018-03-24T12:40:35.311Z,10.58
2018-03-24T12:43:02.760Z,10.75
2018-03-24T12:45:30.390Z,10.85
2018-03-24T12:47:57.845Z,11.05
2018-03-24T12:50:25.297Z,10.62
2018-03-24T12:52:52.922Z,11.08
2018-03-24T12:55:20.369Z,11.08
2018-03-24T12:57:47.864Z,11.36
2018-03-24T13:00:15.310Z,10.96
2018-03-24T13:02:42.754Z,10.94
2018-03-24T13:05:10.217Z,11.24
2018-03-24T13:07:37.666Z,11.18
2018-03-24T13:10:05.498Z,11.38
2018-03-24T13:12:32.941Z,11.43
2018-03-24T13:15:00.381Z,11.99
2018-03-24T13:17:27.853Z,11.91
2018-03-24T13:19:55.301Z,11.83
2018-03-24T13:22:23.049Z,11.99
2018-03-24T13:24:50.485Z,11.67
2018-03-24T13:27:17.937Z,11.44
2018-03-24T13:29:45.426Z,11.70
2018-03-24T13:32:12.897Z,12.02
2018-03-24T13:34:40.393Z,11.59
2018-03-24T13:37:07.877Z,11.65
2018-03-24T13:39:35.338Z,11.88
2018-03-24T13:42:02.813Z,11.94
2018-03-24T13:44:30.282Z,11.78
2018-03-24T13:46:57.755Z,11.93
2018-03-24T13:49:25.209Z,11.35
2018-03-24T13:51:52.654Z,11.26
2018-03-24T13:54:20.137Z,11.33
2018-03-24T13:56:47.585Z,11.16
2018-03-24T13:59:15.283Z,11.34
2018-03-24T14:01:42.757Z,11.35
2018-03-24T14:04:10.202Z,11.42
2018-03-24T14:06:37.676Z,11.65
2018-03-24T14:09:05.170Z,11.70
2018-03-24T14:11:32.857Z,11.93
2018-03-24T14:14:00.313Z,11.99
2018-03-24T14:16:27.778Z,11.81
2018-03-24T14:18:55.265Z,11.58
2018-03-24T14:21:22.709Z,11.52
2018-03-24T14:23:50.416Z,11.63
2018-03-24T14:26:17.976Z,11.62
2018-03-24T14:28:45.413Z,11.48
2018-03-24T14:31:12.889Z,11.67
2018-03-24T14:33:40.344Z,11.46
2018-03-24T14:36:07.823Z,11.94
2018-03-24T14:38:35.266Z,12.03
2018-03-24T14:41:02.711Z,12.07
2018-03-24T14:43:30.206Z,11.81
2018-03-24T14:45:57.658Z,12.03
2018-03-24T14:48:25.401Z,12.26
2018-03-24T14:50:52.852Z,12.30
2018-03-24T14:53:20.301Z,12.03
2018-03-24T14:55:47.778Z,12.00
2018-03-24T14:58:15.226Z,11.94
2018-03-24T15:00:42.866Z,11.80
2018-03-24T15:03:10.313Z,11.74
2018-03-24T15:05:37.777Z,11.57
2018-03-24T15:08:05.283Z,11.55
2018-03-24T15:10:32.727Z,11.50
2018-03-24T15:13:00.408Z,11.17
2018-03-24T15:15:27.849Z,11.48
2018-03-24T15:17:55.286Z,11.51
2018-03-24T15:20:22.785Z,11.54
2018-03-24T15:22:50.222Z,11.63
2018-03-24T15:25:17.868Z,11.83
2018-03-24T15:27:45.368Z,11.93
2018-03-24T15:30:24.958Z,11.71
2018-03-24T15:32:52.641Z,12.00
2018-03-24T15:35:46.654Z,12.10
2018-03-24T15:38:14.140Z,11.79
2018-03-24T15:40:41.782Z,11.91
2018-03-24T15:43:09.228Z,11.97
2018-03-24T15:45:36.682Z,12.07
2018-03-24T15:48:04.167Z,12.15
2018-03-24T15:50:31.610Z,11.96
2018-03-24T15:52:59.230Z,11.99
2018-03-24T15:55:26.689Z,11.98
2018-03-24T15:57:54.145Z,11.77
2018-03-24T16:00:21.602Z,11.54
2018-03-24T16:02:49.245Z,11.57
2018-03-24T16:05:16.745Z,11.50
2018-03-24T16:07:44.189Z,11.58
2018-03-24T16:10:11.647Z,11.61
2018-03-24T16:12:39.113Z,11.51
2018-03-24T16:15:06.621Z,11.51
2018-03-24T16:17:34.550Z,11.50
2018-03-24T16:20:01.994Z,11.42
2018-03-24T16:22:29.445Z,11.34
2018-03-24T16:24:56.950Z,11.35
2018-03-24T16:27:24.394Z,11.26
2018-03-24T16:29:51.887Z,11.17
2018-03-24T16:32:19.339Z,11.09
2018-03-24T16:34:46.801Z,11.08
2018-03-24T16:37:14.262Z,11.20
2018-03-24T16:39:41.709Z,11.13
2018-03-24T16:42:09.279Z,11.06
2018-03-24T16:44:36.748Z,11.03
2018-03-24T16:47:04.195Z,10.99
2018-03-24T16:49:31.669Z,11.03
2018-03-24T16:51:59.120Z,10.99
2018-03-24T16:54:26.601Z,10.80
2018-03-24T16:56:54.058Z,10.75
2018-03-24T16:59:21.502Z,10.73
2018-03-24T17:01:48.979Z,10.71
2018-03-24T17:04:16.466Z,10.58
2018-03-24T17:06:44.171Z,10.51
2018-03-24T17:09:11.641Z,10.54
2018-03-24T17:11:39.106Z,10.57
2018-03-24T17:14:06.643Z,10.37
2018-03-24T17:16:34.101Z,10.27
2018-03-24T17:19:01.538Z,10.03
2018-03-24T17:21:28.996Z,9.97
2018-03-24T17:23:56.446Z,9.87
2018-03-24T17:26:23.883Z,9.87
2018-03-24T17:28:51.354Z,9.60
2018-03-24T17:31:18.798Z,9.57
2018-03-24T17:33:46.261Z,9.42
2018-03-24T17:36:14.009Z,9.31
2018-03-24T17:38:41.498Z,9.15
2018-03-24T17:41:08.977Z,9.04
2018-03-24T17:43:36.789Z,8.83
2018-03-24T17:46:04.225Z,8.87
2018-03-24T17:48:31.720Z,8.59
2018-03-24T17:50:59.397Z,8.40
2018-03-24T17:53:26.850Z,8.41
2018-03-24T17:55:54.301Z,8.29
2018-03-24T17:58:21.907Z,8.09
2018-03-24T18:00:49.348Z,7.90
2018-03-24T18:03:16.814Z,7.91
2018-03-24T18:05:44.286Z,7.84
2018-03-24T18:08:11.761Z,7.73
2018-03-24T18:10:39.213Z,7.58
2018-03-24T18:13:06.681Z,7.40
2018-03-24T18:15:34.150Z,7.29
2018-03-24T18:18:01.605Z,7.28
2018-03-24T18:20:29.111Z,7.13
2018-03-24T18:22:56.570Z,7.11
2018-03-24T18:25:24.085Z,7.11
2018-03-24T18:27:51.530Z,6.90
2018-03-24T18:30:18.993Z,7.07
2018-03-24T18:32:46.458Z,6.76
2018-03-24T18:35:13.946Z,6.56
2018-03-24T18:37:41.561Z,6.71
2018-03-24T18:40:09.009Z,6.59
2018-03-24T18:42:36.441Z,6.51
2018-03-24T18:45:03.919Z,6.50
2018-03-24T18:47:31.383Z,6.65
2018-03-24T18:49:58.989Z,6.67
2018-03-24T18:52:26.442Z,6.65
2018-03-24T18:54:53.886Z,6.74
2018-03-24T18:57:21.479Z,6.90
2018-03-24T18:59:48.941Z,6.85
2018-03-24T19:02:16.550Z,6.71
2018-03-24T19:04:44.262Z,6.81
2018-03-24T19:07:11.750Z,6.47
2018-03-24T19:09:39.231Z,6.72
2018-03-24T19:12:06.670Z,6.89
2018-03-24T19:14:34.381Z,6.86
2018-03-24T19:17:01.822Z,6.81
2018-03-24T19:19:29.277Z,6.82
2018-03-24T19:21:56.747Z,6.82
2018-03-24T19:24:24.197Z,6.68
2018-03-24T19:26:51.834Z,6.75
2018-03-24T19:29:19.285Z,6.71
2018-03-24T19:31:46.730Z,6.60
2018-03-24T19:34:14.207Z,6.86
2018-03-24T19:36:41.658Z,6.53
2018-03-24T19:39:09.504Z,6.46
2018-03-24T19:41:36.971Z,6.43
2018-03-24T19:44:04.414Z,6.46
2018-03-24T19:46:31.899Z,6.34
2018-03-24T19:48:59.361Z,5.96
2018-03-24T19:51:26.833Z,5.95
2018-03-24T19:53:54.290Z,5.89
2018-03-24T19:56:21.786Z,5.76
2018-03-24T19:58:49.269Z,5.68
2018-03-24T20:01:16.741Z,5.73
2018-03-24T20:03:44.401Z,5.72
2018-03-24T20:06:11.861Z,5.74
2018-03-24T20:08:39.302Z,5.91
2018-03-24T20:11:06.779Z,6.07
2018-03-24T20:13:34.226Z,6.06
2018-03-24T20:16:01.925Z,6.03
2018-03-24T20:18:29.378Z,6.05
2018-03-24T20:20:56.844Z,6.03
2018-03-24T20:23:24.412Z,6.01
2018-03-24T20:25:51.888Z,6.02
2018-03-24T20:28:19.373Z,5.91
2018-03-24T20:30:46.833Z,5.74
2018-03-24T20:33:14.293Z,5.85
2018-03-24T20:35:41.787Z,5.82
2018-03-24T20:38:09.239Z,5.61
2018-03-24T20:40:36.845Z,5.43
2018-03-24T20:43:04.325Z,5.41
2018-03-24T20:45:31.783Z,5.27
2018-03-24T20:47:59.257Z,5.39
2018-03-24T20:50:26.709Z,5.40
2018-03-24T20:52:54.401Z,5.15
2018-03-24T20:55:21.849Z,5.26
2018-03-24T20:57:49.333Z,5.13
2018-03-24T21:00:16.812Z,4.83
2018-03-24T21:02:44.276Z,4.92
2018-03-24T21:05:11.762Z,4.84
2018-03-24T21:07:39.215Z,4.67
2018-03-24T21:10:06.657Z,4.60
2018-03-24T21:12:34.252Z,4.56
2018-03-24T21:15:01.694Z,4.43
2018-03-24T21:17:29.194Z,4.33
2018-03-24T21:19:56.646Z,4.04
2018-03-24T21:22:24.108Z,3.90
2018-03-24T21:24:51.602Z,3.74
2018-03-24T21:27:19.050Z,3.75
2018-03-24T21:29:46.529Z,3.57
2018-03-24T21:32:13.978Z,3.60
2018-03-24T21:34:41.462Z,3.67
2018-03-24T21:37:08.936Z,3.59
2018-03-24T21:39:36.415Z,3.54
2018-03-24T21:42:03.966Z,3.62
2018-03-24T21:44:31.445Z,3.42
2018-03-24T21:46:58.893Z,3.24
2018-03-24T21:49:26.378Z,2.98
2018-03-24T21:51:53.821Z,2.84
2018-03-24T21:54:21.317Z,3.00
2018-03-24T21:56:48.766Z,2.82
2018-03-24T21:59:16.234Z,2.93
2018-03-24T22:01:43.717Z,2.65
2018-03-24T22:04:11.166Z,2.68
2018-03-24T22:06:38.690Z,2.62
2018-03-24T22:09:06.134Z,2.65
2018-03-24T22:11:33.582Z,2.59
2018-03-24T22:14:01.053Z,2.70
2018-03-24T22:16:28.499Z,2.50
2018-03-24T22:18:56.077Z,2.50
2018-03-24T22:21:23.521Z,2.43
2018-03-24T22:23:51.003Z,2.26
2018-03-24T22:26:18.491Z,2.30
2018-03-24T22:28:45.937Z,2.30
2018-03-24T22:31:13.418Z,2.37
2018-03-24T22:33:40.892Z,2.25
2018-03-24T22:36:08.338Z,2.37
2018-03-24T22:38:35.837Z,2.19
2018-03-24T22:41:03.292Z,2.07
2018-03-24T22:43:30.758Z,2.01
2018-03-24T22:45:58.209Z,2.10
2018-03-24T22:48:25.763Z,1.98
2018-03-24T22:50:53.229Z,2.03
2018-03-24T22:53:20.705Z,2.02
2018-03-24T22:55:48.189Z,1.92
2018-03-24T22:58:15.651Z,1.95
2018-03-24T23:00:43.109Z,1.70
2018-03-24T23:03:10.569Z,1.77
2018-03-24T23:05:38.010Z,1.94
2018-03-24T23:08:05.522Z,1.92
2018-03-24T23:10:32.971Z,1.73
2018-03-24T23:13:00.423Z,1.70
2018-03-24T23:15:27.891Z,1.81
2018-03-24T23:17:55.346Z,1.70
2018-03-24T23:20:22.825Z,1.72
2018-03-24T23:22:50.284Z,1.54
2018-03-24T23:25:17.756Z,1.42
2018-03-24T23:27:45.237Z,1.52
2018-03-24T23:30:12.709Z,1.48
2018-03-24T23:32:40.193Z,1.43
2018-03-24T23:35:07.641Z,1.47
2018-03-24T23:37:35.117Z,1.42
2018-03-24T23:40:02.683Z,1.23
2018-03-24T23:42:30.081Z,1.36
2018-03-24T23:44:57.573Z,1.24
2018-03-24T23:47:25.044Z,1.14
2018-03-24T23:49:52.489Z,1.13
2018-03-24T23:52:20.161Z,1.03
2018-03-24T23:54:47.609Z,1.12
2018-03-24T23:57:15.378Z,1.26
2018-03-24T23:59:42.818Z,1.27
